Nearby METAR Reports

 

KTOP - Billard Municipal Airport, Topeka, Kansas, USA
Updated: 10/17/2018 1:53am
Clear
Clear
 Wind from calm
Wind: Calm
Temperature: 43°F , 6°C
Dew Point: 37°F , 3°C
Humidity: 81%
Barometer: 1026.4 hPa
Clouds: Clear
Visibility: 10 miles , 16 km
2018/10/17 06:53 KTOP 170653Z AUTO 00000KT 10SM CLR 06/03 A3031 RMK AO2 SLP265 T00560033
KFOE - Forbes Field Airport, Topeka, Kansas, USA
Updated: 10/17/2018 1:53am
Clear
Clear
 Wind from W
Wind: W 3 mph , 6 km/h
Temperature: 39°F , 4°C
Dew Point: 37°F , 3°C
Humidity: 93%
Barometer: 1026.8 hPa
Clouds: Clear
Visibility: 10 miles , 16 km
2018/10/17 06:53 KFOE 170653Z AUTO 28003KT 10SM CLR 04/03 A3032 RMK AO2 SLP267 T00440028 TSNO